Time;durP1;ratioP1;P1;durP2;ratioP2;P2;SDS_P1;SDS_P2;PMS_P1;PMS_P2;Temp;Humidity;BMP_temperature;BMP_pressure;BME280_temperature;BME280_humidity;BME280_pressure;Samples;Min_cycle;Max_cycle;Signal;HPM_P1;HPM_P2
2023/07/03 00:00:42;;;;;;;5.65;2.97;;;19.40;83.60;;;;;;4957585;29;20020;-82
2023/07/03 00:03:13;;;;;;;5.85;3.03;;;19.40;83.60;;;;;;4956709;29;20023;-84
2023/07/03 00:05:43;;;;;;;;;;;19.40;83.70;;;;;;4956582;29;20114;-83
2023/07/03 00:08:09;;;;;;;6.13;2.70;;;19.40;83.70;;;;;;4943649;29;19969;-83
2023/07/03 00:10:34;;;;;;;5.88;2.95;;;19.40;83.70;;;;;;4949377;28;20484;-83
2023/07/03 00:13:00;;;;;;;6.13;2.70;;;19.40;83.80;;;;;;4943845;29;20063;-82
2023/07/03 00:15:26;;;;;;;5.45;3.03;;;19.40;83.90;;;;;;4961249;29;20385;-83
2023/07/03 00:17:51;;;;;;;5.72;2.97;;;19.40;83.80;;;;;;4959144;29;20053;-82
2023/07/03 00:20:16;;;;;;;5.40;2.70;;;19.40;83.90;;;;;;4943545;29;20070;-83
2023/07/03 00:22:44;;;;;;;5.38;2.95;;;19.40;83.90;;;;;;4975849;28;20033;-83
2023/07/03 00:25:10;;;;;;;6.15;3.25;;;19.40;83.90;;;;;;4977662;28;20027;-83
2023/07/03 00:27:35;;;;;;;5.78;3.00;;;19.40;83.90;;;;;;4962170;28;20510;-83
2023/07/03 00:30:01;;;;;;;5.90;2.88;;;19.40;84.00;;;;;;4961626;28;20085;-83
2023/07/03 00:32:28;;;;;;;6.22;2.80;;;19.40;84.00;;;;;;4969403;28;20079;-83
2023/07/03 00:34:54;;;;;;;5.00;2.78;;;19.30;83.90;;;;;;4942265;29;20067;-82
2023/07/03 00:37:21;;;;;;;5.20;2.85;;;19.30;83.90;;;;;;4942055;29;20382;-83
2023/07/03 00:39:46;;;;;;;4.95;2.65;;;19.40;83.90;;;;;;4958987;29;20027;-83
2023/07/03 00:42:12;;;;;;;5.65;2.75;;;19.40;83.90;;;;;;4942899;29;20481;-81
2023/07/03 00:44:37;;;;;;;6.10;2.67;;;19.40;83.80;;;;;;4959530;29;20031;-83
2023/07/03 00:47:03;;;;;;;5.13;2.70;;;19.40;83.80;;;;;;4941545;29;20443;-81
2023/07/03 00:49:30;;;;;;;5.30;2.88;;;19.40;83.70;;;;;;4941399;29;20396;-83
2023/07/03 00:51:59;;;;;;;5.30;2.90;;;19.40;83.70;;;;;;4957734;29;20027;-83
2023/07/03 00:54:24;;;;;;;5.38;2.40;;;19.50;83.70;;;;;;4957563;29;20042;-83
2023/07/03 00:56:50;;;;;;;4.32;2.40;;;19.50;83.60;;;;;;4957346;29;20027;-83
2023/07/03 00:59:16;;;;;;;6.07;2.75;;;19.50;83.60;;;;;;4941645;28;20031;-83
2023/07/03 01:01:57;;;;;;;5.28;2.65;;;19.50;83.60;;;;;;4977983;28;20034;-80
2023/07/03 01:04:38;;;;;;;5.68;3.05;;;19.50;83.50;;;;;;4960311;28;20027;-80
2023/07/03 01:07:08;;;;;;;;;;;19.50;83.50;;;;;;4976205;28;20182;-83
2023/07/03 01:09:43;;;;;;;4.93;2.63;;;19.50;83.50;;;;;;4949563;28;19917;-82
2023/07/03 01:12:10;;;;;;;5.90;2.80;;;19.50;83.40;;;;;;4937762;29;20063;-83
2023/07/03 01:14:38;;;;;;;5.90;2.78;;;19.40;83.30;;;;;;4937566;29;20032;-83
2023/07/03 01:17:09;;;;;;;5.18;2.58;;;19.50;83.50;;;;;;4937099;29;20027;-82
2023/07/03 01:19:36;;;;;;;;;;;19.50;83.50;;;;;;4937265;29;20040;-83
2023/07/03 01:22:27;;;;;;;4.78;2.55;;;19.40;83.40;;;;;;4932501;28;19912;-82
2023/07/03 01:25:01;;;;;;;6.65;2.95;;;19.40;83.60;;;;;;4959519;28;20054;-82
2023/07/03 01:27:33;;;;;;;5.53;2.85;;;19.40;83.90;;;;;;4959362;28;20023;-82
2023/07/03 01:30:00;;;;;;;6.32;2.97;;;19.40;83.90;;;;;;4959878;28;20019;-83
2023/07/03 01:32:29;;;;;;;5.30;2.80;;;19.40;84.00;;;;;;4940044;29;20162;-82
2023/07/03 01:34:56;;;;;;;5.72;2.95;;;19.40;84.00;;;;;;4957188;29;20035;-82
2023/07/03 01:37:25;;;;;;;6.43;3.00;;;19.40;84.00;;;;;;4939395;29;20085;-83
2023/07/03 01:39:52;;;;;;;4.90;2.60;;;19.40;84.00;;;;;;4970857;28;20403;-83
2023/07/03 01:42:23;;;;;;;5.40;2.75;;;19.40;84.00;;;;;;4958735;28;20554;-82
2023/07/03 01:44:49;;;;;;;4.78;2.47;;;19.30;84.00;;;;;;4975918;28;20395;-83
2023/07/03 01:47:14;;;;;;;5.50;3.08;;;19.30;84.00;;;;;;4978599;28;20037;-83
2023/07/03 01:49:40;;;;;;;5.10;3.00;;;19.40;84.10;;;;;;4974997;28;20091;-84
2023/07/03 01:52:42;;;;;;;5.75;2.88;;;19.40;84.10;;;;;;4946320;29;20057;-84
2023/07/03 01:55:32;;;;;;;5.45;2.72;;;19.40;84.20;;;;;;4925020;29;20053;-84
2023/07/03 01:58:04;;;;;;;5.13;2.58;;;19.40;84.20;;;;;;4944156;29;20361;-85
2023/07/03 02:00:35;;;;;;;;;;;19.40;84.20;;;;;;4963417;28;20023;-84
2023/07/03 02:03:06;;;;;;;5.38;2.40;;;19.40;84.20;;;;;;4960574;29;19963;-84
2023/07/03 02:05:36;;;;;;;6.40;3.00;;;19.30;84.30;;;;;;4945130;29;20031;-84
2023/07/03 02:08:03;;;;;;;5.55;2.80;;;19.40;84.30;;;;;;4944484;28;20027;-84
2023/07/03 02:10:28;;;;;;;5.80;2.60;;;19.40;84.30;;;;;;4951168;29;20034;-83
2023/07/03 02:12:54;;;;;;;5.32;2.53;;;19.40;84.20;;;;;;4946709;29;20028;-84
2023/07/03 02:15:19;;;;;;;5.60;2.70;;;19.30;84.10;;;;;;4959158;29;20031;-84
2023/07/03 02:17:45;;;;;;;4.82;2.35;;;19.30;84.20;;;;;;4942577;29;20495;-80
2023/07/03 02:20:14;;;;;;;5.07;2.33;;;19.40;84.20;;;;;;4960331;29;20042;-84
2023/07/03 02:22:43;;;;;;;4.68;2.42;;;19.30;84.10;;;;;;4948351;28;20036;-84
2023/07/03 02:25:10;;;;;;;5.22;2.90;;;19.40;84.10;;;;;;4979022;28;20086;-84
2023/07/03 02:27:36;;;;;;;5.80;2.75;;;19.40;84.10;;;;;;4979463;28;20027;-81
2023/07/03 02:30:02;;;;;;;4.95;2.60;;;19.40;84.00;;;;;;4978582;28;20078;-84
2023/07/03 02:32:36;;;;;;;5.70;2.78;;;19.40;83.90;;;;;;4958437;28;20055;-83
2023/07/03 02:35:02;;;;;;;5.00;2.63;;;19.40;83.90;;;;;;4960717;29;20091;-84
2023/07/03 02:37:27;;;;;;;4.72;2.30;;;19.40;83.80;;;;;;4944725;29;20140;-84
2023/07/03 02:39:53;;;;;;;5.18;2.70;;;19.50;83.80;;;;;;4945274;29;20031;-84
2023/07/03 02:42:18;;;;;;;5.07;2.35;;;19.50;83.80;;;;;;4959340;29;20031;-83
2023/07/03 02:44:44;;;;;;;5.60;2.88;;;19.50;83.80;;;;;;4940201;29;20091;-83
2023/07/03 02:47:09;;;;;;;5.00;2.65;;;19.50;83.90;;;;;;4924454;29;20030;-84
2023/07/03 02:49:34;;;;;;;5.03;2.40;;;19.50;83.70;;;;;;4941023;29;20035;-84
2023/07/03 02:52:00;;;;;;;5.40;2.70;;;19.50;83.90;;;;;;4960552;29;20091;-83
2023/07/03 02:54:25;;;;;;;5.80;2.75;;;19.50;83.80;;;;;;4960634;29;20035;-82
2023/07/03 02:56:51;;;;;;;5.63;2.85;;;19.50;83.90;;;;;;4942619;29;20174;-83
2023/07/03 02:59:16;;;;;;;6.10;3.15;;;19.40;83.70;;;;;;4942846;29;20023;-81
2023/07/03 03:01:42;;;;;;;6.45;3.38;;;19.40;84.10;;;;;;4960167;28;20099;-83
2023/07/03 03:04:07;;;;;;;5.00;2.65;;;19.40;84.20;;;;;;4941871;29;20444;-83
2023/07/03 03:06:33;;;;;;;4.88;2.78;;;19.40;84.20;;;;;;4941974;29;20479;-83
2023/07/03 03:08:58;;;;;;;5.40;2.63;;;19.40;84.30;;;;;;4941440;29;20043;-83
2023/07/03 03:11:24;;;;;;;4.88;2.53;;;19.30;84.20;;;;;;4959078;29;20417;-84
2023/07/03 03:13:49;;;;;;;5.03;2.50;;;19.40;84.10;;;;;;4957385;29;20645;-83
2023/07/03 03:16:16;;;;;;;6.38;3.00;;;19.30;84.00;;;;;;4957360;29;20125;-83
2023/07/03 03:18:41;;;;;;;5.32;2.60;;;19.30;83.90;;;;;;4956991;29;20159;-84
2023/07/03 03:21:07;;;;;;;4.70;2.30;;;19.40;83.90;;;;;;4958465;29;20385;-80
2023/07/03 03:23:32;;;;;;;4.75;2.30;;;19.40;84.10;;;;;;4967256;28;20027;-83
2023/07/03 03:25:58;;;;;;;5.30;2.53;;;19.30;84.00;;;;;;4957453;28;20022;-82
2023/07/03 03:28:23;;;;;;;5.68;2.60;;;19.30;84.10;;;;;;4945565;29;20027;-81
2023/07/03 03:30:49;;;;;;;5.50;2.67;;;19.30;84.00;;;;;;4954925;28;20071;-80
2023/07/03 03:33:14;;;;;;;5.60;2.75;;;19.30;84.00;;;;;;4952257;29;20031;-80
2023/07/03 03:35:41;;;;;;;4.93;2.35;;;19.30;84.10;;;;;;4953268;29;20045;-81
2023/07/03 03:38:06;;;;;;;5.68;2.60;;;19.30;84.00;;;;;;4951302;29;20062;-80
2023/07/03 03:40:32;;;;;;;6.07;2.78;;;19.30;83.90;;;;;;4953145;29;20031;-82
2023/07/03 03:42:58;;;;;;;5.10;2.50;;;19.30;83.70;;;;;;4951924;29;20383;-79
2023/07/03 03:45:24;;;;;;;4.68;2.63;;;19.30;83.50;;;;;;4951742;28;20038;-82
2023/07/03 03:47:51;;;;;;;5.18;2.40;;;19.30;83.70;;;;;;4935875;29;20527;-81
2023/07/03 03:50:16;;;;;;;4.85;2.47;;;19.30;84.30;;;;;;4949372;29;20028;-82
2023/07/03 03:52:42;;;;;;;5.20;2.50;;;19.30;83.80;;;;;;4951433;29;20144;-80
2023/07/03 03:55:08;;;;;;;4.45;2.20;;;19.30;83.70;;;;;;4936233;29;20555;-82
2023/07/03 03:57:33;;;;;;;4.78;2.55;;;19.30;84.00;;;;;;4935899;29;20054;-80
2023/07/03 03:59:59;;;;;;;5.00;2.60;;;19.30;83.60;;;;;;4935701;29;20139;-81
2023/07/03 04:02:24;;;;;;;5.28;2.50;;;19.30;83.80;;;;;;4934882;29;20023;-82
2023/07/03 04:04:50;;;;;;;4.68;2.35;;;19.30;83.60;;;;;;4950835;29;20023;-79
2023/07/03 04:07:15;;;;;;;4.78;2.22;;;19.40;83.70;;;;;;4934378;29;20067;-80
2023/07/03 04:09:41;;;;;;;5.45;2.67;;;19.40;83.60;;;;;;4950682;28;20051;-80
2023/07/03 04:12:07;;;;;;;5.35;2.38;;;19.40;83.50;;;;;;4951205;29;20032;-79
2023/07/03 04:14:33;;;;;;;5.07;2.50;;;19.40;83.70;;;;;;4939901;29;20113;-78
2023/07/03 04:17:00;;;;;;;5.60;2.65;;;19.60;83.80;;;;;;4932720;29;20445;-79
2023/07/03 04:19:28;;;;;;;4.43;2.30;;;19.50;83.70;;;;;;4932577;29;20039;-79
2023/07/03 04:21:53;;;;;;;4.60;2.35;;;19.50;83.70;;;;;;4949366;29;20031;-81
2023/07/03 04:24:19;;;;;;;4.75;2.40;;;19.50;83.80;;;;;;4939703;29;20115;-79
2023/07/03 04:26:44;;;;;;;5.22;2.58;;;19.40;83.60;;;;;;4930066;29;20032;-81
2023/07/03 04:29:10;;;;;;;4.82;2.30;;;19.40;83.60;;;;;;4940677;29;20015;-79
2023/07/03 04:31:36;;;;;;;4.82;2.25;;;19.40;83.60;;;;;;4933242;29;20020;-81
2023/07/03 04:34:02;;;;;;;4.78;2.30;;;19.40;83.60;;;;;;4933049;29;20038;-81
2023/07/03 04:36:27;;;;;;;5.35;2.70;;;19.40;83.70;;;;;;4949138;29;20507;-81
2023/07/03 04:38:57;;;;;;;5.20;2.42;;;19.40;83.90;;;;;;4948731;28;20023;-80
2023/07/03 04:41:24;;;;;;;6.20;2.60;;;19.40;84.10;;;;;;4930470;29;20027;-79
2023/07/03 04:43:51;;;;;;;4.50;2.30;;;19.40;84.00;;;;;;4948240;29;20043;-79
2023/07/03 04:46:25;;;;;;;4.90;2.30;;;19.30;84.00;;;;;;4949025;29;20118;-81
2023/07/03 04:48:51;;;;;;;5.45;2.50;;;19.30;83.90;;;;;;4941761;29;20059;-79
2023/07/03 04:51:17;;;;;;;5.60;2.40;;;19.40;84.10;;;;;;4941396;29;20026;-81
2023/07/03 04:53:43;;;;;;;4.68;2.50;;;19.30;84.10;;;;;;4941980;29;20016;-77
2023/07/03 04:56:10;;;;;;;4.97;2.50;;;19.30;84.10;;;;;;4932380;29;20400;-81
2023/07/03 04:58:35;;;;;;;4.35;2.22;;;19.30;84.10;;;;;;4953730;29;20496;-79
2023/07/03 05:01:01;;;;;;;5.50;2.40;;;19.30;84.20;;;;;;4939904;28;20078;-80
2023/07/03 05:03:26;;;;;;;4.78;2.40;;;19.30;84.10;;;;;;4938309;29;20028;-79
2023/07/03 05:05:52;;;;;;;4.93;2.17;;;19.30;83.50;;;;;;4936666;29;20041;-82
2023/07/03 05:08:17;;;;;;;4.65;2.15;;;19.30;83.80;;;;;;4922530;28;20031;-80
2023/07/03 05:10:43;;;;;;;5.82;2.10;;;19.30;83.50;;;;;;4957167;29;20032;-82
2023/07/03 05:13:08;;;;;;;5.68;2.35;;;19.30;83.50;;;;;;4939809;29;20028;-80
2023/07/03 05:15:34;;;;;;;6.00;2.55;;;19.30;83.80;;;;;;4939914;29;20500;-81
2023/07/03 05:18:00;;;;;;;5.35;2.17;;;19.30;83.70;;;;;;4938727;29;20969;-80
2023/07/03 05:20:26;;;;;;;5.32;2.40;;;19.30;83.60;;;;;;4954861;29;20043;-81
2023/07/03 05:22:51;;;;;;;6.70;2.60;;;19.30;83.50;;;;;;4938909;29;20042;-79
2023/07/03 05:25:18;;;;;;;6.18;2.83;;;19.30;83.80;;;;;;4934662;29;20057;-81
2023/07/03 05:27:44;;;;;;;6.72;2.30;;;19.30;83.60;;;;;;4936032;29;20067;-79
2023/07/03 05:30:10;;;;;;;5.80;2.42;;;19.30;83.50;;;;;;4953336;28;20058;-82
2023/07/03 05:32:36;;;;;;;6.45;2.30;;;19.30;83.40;;;;;;4938130;29;20027;-81
2023/07/03 05:35:04;;;;;;;5.00;2.40;;;19.30;83.20;;;;;;4938200;29;20031;-81
2023/07/03 05:37:29;;;;;;;5.18;2.42;;;19.40;83.30;;;;;;4937245;29;20042;-81
2023/07/03 05:39:55;;;;;;;5.20;2.40;;;19.40;83.20;;;;;;4937403;29;20035;-80
2023/07/03 05:42:21;;;;;;;6.18;2.50;;;19.40;83.20;;;;;;4950160;29;20123;-82
2023/07/03 05:44:47;;;;;;;5.25;2.42;;;19.40;83.20;;;;;;4937287;29;20031;-82
2023/07/03 05:47:14;;;;;;;6.35;2.85;;;19.40;82.90;;;;;;4939569;29;20038;-80
2023/07/03 05:49:39;;;;;;;5.85;2.22;;;19.40;83.30;;;;;;4939628;29;20031;-81
2023/07/03 05:52:06;;;;;;;6.32;2.10;;;19.40;83.40;;;;;;4957699;28;20411;-82
2023/07/03 05:54:31;;;;;;;4.15;2.00;;;19.50;83.00;;;;;;4951568;28;20038;-81
2023/07/03 05:57:05;;;;;;;6.28;2.80;;;19.40;83.10;;;;;;4952220;29;20027;-82
2023/07/03 05:59:31;;;;;;;6.05;2.47;;;19.40;83.30;;;;;;4956089;29;20031;-79
2023/07/03 06:01:57;;;;;;;5.55;2.47;;;19.40;83.20;;;;;;4956433;28;20531;-82
2023/07/03 06:04:23;;;;;;;4.88;2.20;;;19.40;82.50;;;;;;4945676;29;20032;-79
2023/07/03 06:06:57;;;;;;;5.97;2.65;;;19.40;82.50;;;;;;4953884;28;20066;-82
2023/07/03 06:09:23;;;;;;;4.65;2.10;;;19.40;82.50;;;;;;4947234;29;20110;-79
2023/07/03 06:11:49;;;;;;;4.75;2.20;;;19.40;82.50;;;;;;4938060;29;20045;-81
2023/07/03 06:14:17;;;;;;;5.20;2.20;;;19.40;82.80;;;;;;4954941;29;20502;-80
2023/07/03 06:16:46;;;;;;;8.23;2.53;;;19.40;82.80;;;;;;4954684;29;20035;-79
2023/07/03 06:19:13;;;;;;;6.22;2.30;;;19.30;82.90;;;;;;4930923;29;20035;-82
2023/07/03 06:21:39;;;;;;;5.53;2.40;;;19.40;83.00;;;;;;4934338;29;20031;-82
2023/07/03 06:24:07;;;;;;;6.20;2.38;;;19.30;82.80;;;;;;4944771;29;20023;-79
2023/07/03 06:26:33;;;;;;;5.47;2.20;;;19.30;82.90;;;;;;4954270;29;20027;-82
2023/07/03 06:29:00;;;;;;;5.72;2.47;;;19.40;83.10;;;;;;4936487;29;20035;-81
2023/07/03 06:31:26;;;;;;;6.32;2.13;;;19.40;82.80;;;;;;4952522;29;20890;-82
2023/07/03 06:33:51;;;;;;;4.78;2.25;;;19.40;83.00;;;;;;4952069;29;20122;-82
2023/07/03 06:36:21;;;;;;;5.20;2.28;;;19.30;82.90;;;;;;4951952;29;20035;-79
2023/07/03 06:38:51;;;;;;;5.18;2.30;;;19.30;83.10;;;;;;4949491;28;20515;-82
2023/07/03 06:41:16;;;;;;;4.95;2.17;;;19.40;83.20;;;;;;4945652;29;20027;-81
2023/07/03 06:43:41;;;;;;;4.60;2.20;;;19.40;83.10;;;;;;4936065;29;20031;-81
2023/07/03 06:46:07;;;;;;;5.50;2.40;;;19.30;83.10;;;;;;4952066;29;20394;-81
2023/07/03 06:48:32;;;;;;;6.60;2.55;;;19.30;83.20;;;;;;4935736;29;20031;-79
2023/07/03 06:51:03;;;;;;;6.90;2.42;;;19.40;83.30;;;;;;4952987;29;20201;-81
2023/07/03 06:53:29;;;;;;;5.00;2.10;;;19.30;83.20;;;;;;4949815;29;20038;-82
2023/07/03 06:55:58;;;;;;;4.78;2.25;;;19.30;83.20;;;;;;4933343;29;20043;-80
2023/07/03 06:58:25;;;;;;;7.68;2.28;;;19.30;83.20;;;;;;4933347;29;20040;-80
2023/07/03 07:00:51;;;;;;;5.68;2.30;;;19.40;83.20;;;;;;4954164;28;20031;-81
2023/07/03 07:03:16;;;;;;;4.88;2.20;;;19.30;83.30;;;;;;4931956;29;20038;-81
2023/07/03 07:05:42;;;;;;;6.70;2.30;;;19.40;83.20;;;;;;4933994;29;20126;-82
2023/07/03 07:08:08;;;;;;;4.82;2.10;;;19.40;83.40;;;;;;4933305;29;20032;-81
2023/07/03 07:10:38;;;;;;;6.03;2.30;;;19.40;83.10;;;;;;4952625;28;20089;-81
2023/07/03 07:13:03;;;;;;;5.28;2.28;;;19.50;82.90;;;;;;4935130;29;20031;-82
2023/07/03 07:15:29;;;;;;;6.22;2.63;;;19.50;82.70;;;;;;4941229;29;20177;-81
2023/07/03 07:17:54;;;;;;;4.70;2.13;;;19.50;82.70;;;;;;4934626;28;20507;-80
2023/07/03 07:20:20;;;;;;;5.50;2.35;;;19.60;82.80;;;;;;4924633;29;20048;-80
2023/07/03 07:22:45;;;;;;;4.68;2.03;;;19.60;82.60;;;;;;4915797;29;20667;-81
2023/07/03 07:25:11;;;;;;;6.95;2.70;;;19.70;82.50;;;;;;4915359;29;20040;-82
2023/07/03 07:27:36;;;;;;;4.30;1.85;;;19.60;82.20;;;;;;4932804;29;20082;-81
2023/07/03 07:30:02;;;;;;;5.30;2.17;;;19.70;82.30;;;;;;4947175;28;20033;-80
2023/07/03 07:32:28;;;;;;;5.93;2.65;;;19.70;82.40;;;;;;4941223;29;20027;-81
2023/07/03 07:34:53;;;;;;;5.47;2.25;;;19.70;82.10;;;;;;4949676;29;20102;-81
2023/07/03 07:37:19;;;;;;;6.15;2.22;;;19.70;82.30;;;;;;4933423;29;20127;-82
2023/07/03 07:39:44;;;;;;;5.43;2.30;;;19.70;82.20;;;;;;4946242;28;20440;-79
2023/07/03 07:42:09;;;;;;;5.22;2.25;;;19.70;82.20;;;;;;4940744;29;20034;-81
2023/07/03 07:44:35;;;;;;;5.60;2.25;;;19.70;82.40;;;;;;4933503;29;20031;-78
2023/07/03 07:47:00;;;;;;;5.38;2.17;;;19.70;82.40;;;;;;4949406;29;20384;-81
2023/07/03 07:49:26;;;;;;;5.35;2.08;;;19.70;82.50;;;;;;4953947;28;20030;-79
2023/07/03 07:51:51;;;;;;;5.22;1.92;;;19.60;82.60;;;;;;4954150;28;20031;-81
2023/07/03 07:54:17;;;;;;;5.00;2.30;;;19.60;82.70;;;;;;4933217;29;20057;-80
2023/07/03 07:56:42;;;;;;;5.65;2.15;;;19.70;82.80;;;;;;4933458;29;20033;-81
2023/07/03 07:59:08;;;;;;;5.25;2.20;;;19.60;82.60;;;;;;4950628;29;20106;-80
2023/07/03 08:01:33;;;;;;;4.55;2.15;;;19.60;82.70;;;;;;4933502;29;20031;-81
2023/07/03 08:03:59;;;;;;;5.38;1.95;;;19.60;82.70;;;;;;4950683;29;20046;-81
2023/07/03 08:06:24;;;;;;;5.15;2.25;;;19.70;82.70;;;;;;4950566;29;20797;-81
2023/07/03 08:08:50;;;;;;;4.32;2.00;;;19.70;82.70;;;;;;4955991;28;20073;-79
2023/07/03 08:11:17;;;;;;;4.55;2.03;;;19.70;82.70;;;;;;4969884;28;20062;-81
2023/07/03 08:13:42;;;;;;;5.13;2.15;;;19.60;82.70;;;;;;4956984;28;20036;-80
2023/07/03 08:16:09;;;;;;;6.35;2.60;;;19.70;82.70;;;;;;4953329;29;20015;-82
2023/07/03 08:18:35;;;;;;;4.38;1.90;;;19.70;82.70;;;;;;4933682;29;20028;-82
2023/07/03 08:21:01;;;;;;;4.43;2.08;;;19.70;82.70;;;;;;4933511;29;20479;-82
2023/07/03 08:23:26;;;;;;;4.80;2.15;;;19.70;82.80;;;;;;4936876;29;20032;-83
2023/07/03 08:25:54;;;;;;;5.13;2.20;;;19.70;82.80;;;;;;4948236;29;20047;-82
2023/07/03 08:28:20;;;;;;;5.25;2.38;;;19.70;82.90;;;;;;4935783;28;20016;-81
2023/07/03 08:30:46;;;;;;;4.00;2.10;;;19.60;82.90;;;;;;4952643;28;20031;-79
2023/07/03 08:33:12;;;;;;;4.35;2.10;;;19.60;83.00;;;;;;4940097;29;20030;-82
2023/07/03 08:35:38;;;;;;;4.95;2.13;;;19.60;83.10;;;;;;4956606;29;20057;-80
2023/07/03 08:38:03;;;;;;;4.80;2.05;;;19.60;83.10;;;;;;4956618;29;20110;-82
2023/07/03 08:40:29;;;;;;;5.10;2.17;;;19.60;83.10;;;;;;4936562;29;20038;-80
2023/07/03 08:42:57;;;;;;;5.20;2.08;;;19.60;83.20;;;;;;4946018;29;20023;-82
2023/07/03 08:45:33;;;;;;;4.50;1.83;;;19.60;83.00;;;;;;4939631;29;20053;-81
2023/07/03 08:48:01;;;;;;;5.22;2.33;;;19.70;82.90;;;;;;4939131;29;20610;-79
2023/07/03 08:50:28;;;;;;;4.13;1.80;;;19.70;82.70;;;;;;4954124;28;20031;-83
2023/07/03 08:52:57;;;;;;;5.63;2.10;;;19.80;82.40;;;;;;4951941;29;20019;-82
2023/07/03 08:55:33;;;;;;;5.57;2.10;;;19.80;82.30;;;;;;4938751;29;20055;-82
2023/07/03 08:57:58;;;;;;;4.93;2.17;;;19.80;82.20;;;;;;4938188;29;20027;-79
2023/07/03 09:00:25;;;;;;;5.32;2.05;;;19.80;82.10;;;;;;4938200;29;20146;-83
2023/07/03 09:03:40;;;;;;;4.40;1.98;;;19.90;82.00;;;;;;4944857;29;20031;-81
2023/07/03 09:06:11;;;;;;;4.50;2.30;;;19.90;82.00;;;;;;4935302;29;20050;-83
2023/07/03 09:09:06;;;;;;;4.53;2.05;;;19.80;82.00;;;;;;4940222;29;20030;-82
2023/07/03 09:11:37;;;;;;;3.72;1.88;;;19.90;82.20;;;;;;4926143;29;20035;-82
2023/07/03 09:14:04;;;;;;;5.63;2.20;;;19.80;82.20;;;;;;4956014;29;20086;-83
2023/07/03 09:16:30;;;;;;;4.65;2.17;;;19.80;82.30;;;;;;4957123;29;20031;-80
2023/07/03 09:19:15;;;;;;;5.00;2.20;;;19.70;82.50;;;;;;4956709;29;20039;-82
2023/07/03 09:21:42;;;;;;;5.20;2.00;;;19.70;82.50;;;;;;4937414;29;20126;-81
2023/07/03 09:24:28;;;;;;;4.28;2.00;;;19.70;82.60;;;;;;4930989;29;20035;-82
2023/07/03 09:27:10;;;;;;;4.60;2.13;;;19.70;82.60;;;;;;4954982;29;20070;-82
2023/07/03 09:29:36;;;;;;;4.95;2.30;;;19.80;82.60;;;;;;4947259;29;20046;-82
2023/07/03 09:32:02;;;;;;;4.75;2.30;;;19.80;82.60;;;;;;4938418;29;20145;-82
2023/07/03 09:34:47;;;;;;;4.60;2.05;;;19.80;82.50;;;;;;4935277;29;20070;-82
2023/07/03 09:37:14;;;;;;;5.35;2.08;;;19.80;82.30;;;;;;4938054;29;20055;-81
2023/07/03 09:39:39;;;;;;;5.78;2.38;;;19.80;82.20;;;;;;4955428;29;20032;-80
2023/07/03 09:42:07;;;;;;;5.72;2.45;;;19.80;82.20;;;;;;4953166;28;20046;-81
2023/07/03 09:44:39;;;;;;;5.10;2.17;;;19.90;82.30;;;;;;4953561;29;20031;-82
2023/07/03 09:47:18;;;;;;;4.70;2.17;;;19.90;82.30;;;;;;4955184;29;20028;-81
2023/07/03 09:49:44;;;;;;;4.60;2.30;;;19.80;82.30;;;;;;4949281;28;20035;-80
2023/07/03 09:52:09;;;;;;;4.53;1.98;;;19.80;82.40;;;;;;4936122;29;20038;-82
2023/07/03 09:54:42;;;;;;;4.25;2.08;;;19.80;82.40;;;;;;4954164;29;20086;-82
2023/07/03 09:57:25;;;;;;;5.78;2.15;;;19.80;82.40;;;;;;4936673;29;20431;-81
2023/07/03 09:59:52;;;;;;;4.35;2.10;;;19.80;82.40;;;;;;4937233;29;20042;-80
2023/07/03 10:02:21;;;;;;;5.85;2.15;;;19.80;82.50;;;;;;4952355;29;20030;-82
2023/07/03 10:04:46;;;;;;;4.53;2.05;;;19.80;82.40;;;;;;4936384;29;20033;-82
2023/07/03 10:07:16;;;;;;;4.55;1.95;;;19.80;82.40;;;;;;4954125;29;20091;-81
2023/07/03 10:09:43;;;;;;;3.80;1.60;;;19.90;82.30;;;;;;4962033;28;20030;-80
2023/07/03 10:12:27;;;;;;;4.18;2.13;;;19.90;82.20;;;;;;4953100;29;20130;-83
2023/07/03 10:15:01;;;;;;;4.03;1.90;;;19.90;82.30;;;;;;4936188;29;20023;-81
2023/07/03 10:17:33;;;;;;;4.25;2.00;;;19.90;82.10;;;;;;4953396;29;20372;-79
2023/07/03 10:20:08;;;;;;;4.90;2.15;;;19.90;82.10;;;;;;4960502;28;20039;-80
2023/07/03 10:22:34;;;;;;;5.60;2.58;;;20.00;82.10;;;;;;4959518;28;20038;-80
2023/07/03 10:25:04;;;;;;;4.25;1.92;;;20.00;82.00;;;;;;4953120;29;20588;-82
2023/07/03 10:27:32;;;;;;;5.05;2.03;;;20.00;81.90;;;;;;4935696;29;20035;-80
2023/07/03 10:29:59;;;;;;;5.47;2.33;;;20.00;81.80;;;;;;4947504;28;20033;-81
2023/07/03 10:32:31;;;;;;;5.25;2.28;;;20.00;81.80;;;;;;4942654;29;20106;-81
2023/07/03 10:35:13;;;;;;;4.80;2.08;;;20.00;81.80;;;;;;4935787;29;20590;-83
2023/07/03 10:37:55;;;;;;;4.72;2.00;;;20.00;81.80;;;;;;4934545;29;20131;-80
2023/07/03 10:40:43;;;;;;;4.75;2.05;;;20.00;81.80;;;;;;4966064;28;20114;-81
2023/07/03 10:43:11;;;;;;;4.85;2.10;;;20.00;81.80;;;;;;4954651;28;20038;-79
2023/07/03 10:45:37;;;;;;;5.07;2.05;;;20.00;81.70;;;;;;4953923;28;20034;-80
2023/07/03 10:48:13;;;;;;;4.07;2.03;;;20.00;81.70;;;;;;4953819;28;20037;-81
2023/07/03 10:51:30;;;;;;;6.50;2.13;;;20.00;81.70;;;;;;4941912;29;20023;-79
2023/07/03 10:54:19;;;;;;;5.25;1.90;;;20.00;81.80;;;;;;4919584;29;20367;-82
2023/07/03 10:56:48;;;;;;;4.93;2.37;;;20.00;81.80;;;;;;4949792;29;20039;-83
2023/07/03 10:59:29;;;;;;;4.65;2.00;;;20.00;81.90;;;;;;4950227;29;20396;-80
2023/07/03 11:02:15;;;;;;;4.38;2.00;;;20.00;82.00;;;;;;4931435;29;20689;-79
2023/07/03 11:04:56;;;;;;;4.50;2.00;;;20.00;82.10;;;;;;4932481;29;20366;-81
2023/07/03 11:07:47;;;;;;;4.10;1.90;;;19.90;82.10;;;;;;4915272;29;20083;-82
2023/07/03 11:10:23;;;;;;;5.13;2.05;;;19.90;82.20;;;;;;4929974;29;20093;-81
2023/07/03 11:13:25;;;;;;;3.80;1.80;;;19.90;82.40;;;;;;4952009;29;20034;-82
2023/07/03 11:16:13;;;;;;;4.57;1.90;;;19.90;82.40;;;;;;4883045;29;20112;-79
2023/07/03 11:19:03;;;;;;;4.45;1.90;;;19.90;82.50;;;;;;4950342;29;20058;-82
2023/07/03 11:21:36;;;;;;;;;;;19.90;82.60;;;;;;4916210;29;20031;-79
2023/07/03 11:24:10;;;;;;;4.15;1.80;;;19.90;82.70;;;;;;4919564;29;20304;-81
2023/07/03 11:26:52;;;;;;;6.03;2.20;;;19.90;82.70;;;;;;4951131;29;20015;-81
2023/07/03 11:29:18;;;;;;;4.93;1.90;;;19.80;82.70;;;;;;4931317;29;20539;-83
2023/07/03 11:31:45;;;;;;;4.40;1.90;;;19.80;82.70;;;;;;4955646;29;20035;-81
2023/07/03 11:34:15;;;;;;;2.80;1.60;;;19.80;82.70;;;;;;4954934;29;20038;-82
2023/07/03 11:36:44;;;;;;;5.38;2.00;;;19.80;82.90;;;;;;4936777;29;20035;-80
2023/07/03 11:39:19;;;;;;;4.32;2.00;;;19.80;82.70;;;;;;4943423;28;20556;-83
2023/07/03 11:41:54;;;;;;;4.38;1.95;;;19.80;82.80;;;;;;4949703;29;20086;-83
2023/07/03 11:44:37;;;;;;;4.18;1.65;;;19.80;82.70;;;;;;4954797;29;20114;-81
2023/07/03 11:47:10;;;;;;;5.47;2.28;;;19.80;82.60;;;;;;4952709;29;20027;-82
2023/07/03 11:49:43;;;;;;;3.80;1.67;;;19.80;82.70;;;;;;4955160;28;20950;-81
2023/07/03 11:52:13;;;;;;;4.25;2.10;;;19.80;82.70;;;;;;4937570;29;20484;-82
2023/07/03 11:54:39;;;;;;;5.13;2.00;;;19.80;82.60;;;;;;4936633;29;20031;-82
2023/07/03 11:57:08;;;;;;;3.90;1.80;;;19.80;82.50;;;;;;4936171;29;20035;-81
2023/07/03 11:59:43;;;;;;;4.05;1.70;;;19.90;82.50;;;;;;4953308;28;20041;-81
2023/07/03 12:02:11;;;;;;;4.10;1.70;;;19.90;82.40;;;;;;4953699;29;20509;-82
2023/07/03 12:04:43;;;;;;;4.63;2.00;;;19.90;82.00;;;;;;4935810;29;20035;-81
2023/07/03 12:07:10;;;;;;;4.40;1.70;;;19.90;82.70;;;;;;4935406;29;20030;-82
2023/07/03 12:09:36;;;;;;;3.28;1.70;;;19.90;82.10;;;;;;4935367;29;20038;-79
2023/07/03 12:12:03;;;;;;;3.75;1.83;;;19.90;82.10;;;;;;4952039;29;20023;-81
2023/07/03 12:14:44;;;;;;;4.30;1.92;;;19.90;82.10;;;;;;4935359;29;20035;-82
2023/07/03 12:17:32;;;;;;;4.25;1.70;;;19.90;82.10;;;;;;4952223;29;20049;-83
2023/07/03 12:20:12;;;;;;;3.40;1.75;;;19.90;82.00;;;;;;4960222;28;20129;-82
2023/07/03 12:22:46;;;;;;;4.30;1.60;;;19.90;82.10;;;;;;4956837;28;20030;-81
2023/07/03 12:25:16;;;;;;;3.78;1.70;;;19.90;82.20;;;;;;4943078;29;20472;-83
2023/07/03 12:27:42;;;;;;;4.53;2.15;;;19.90;82.30;;;;;;4952754;29;20027;-82
2023/07/03 12:30:41;;;;;;;3.47;1.65;;;19.90;82.40;;;;;;4961330;28;20050;-81
2023/07/03 12:33:07;;;;;;;4.50;1.73;;;19.90;82.40;;;;;;4929162;29;20051;-79
2023/07/03 12:35:42;;;;;;;3.35;1.33;;;19.90;82.40;;;;;;4936668;29;20039;-82
2023/07/03 12:38:10;;;;;;;4.32;1.60;;;19.80;82.30;;;;;;4935531;29;20035;-82
2023/07/03 12:40:41;;;;;;;4.07;1.60;;;19.80;82.30;;;;;;4970837;28;20034;-80
2023/07/03 12:43:08;;;;;;;4.53;1.88;;;19.90;82.40;;;;;;4954582;28;20044;-80
2023/07/03 12:45:33;;;;;;;4.35;1.70;;;19.90;82.40;;;;;;4935390;29;20538;-83
2023/07/03 12:48:06;;;;;;;4.65;1.35;;;19.90;82.40;;;;;;4935590;29;20139;-82
2023/07/03 12:50:34;;;;;;;3.38;1.63;;;19.90;82.40;;;;;;4937084;29;20072;-82
2023/07/03 12:53:02;;;;;;;3.90;1.70;;;19.90;82.40;;;;;;4932730;29;20031;-82
2023/07/03 12:55:32;;;;;;;3.80;1.65;;;19.90;82.40;;;;;;4944695;29;20081;-79
2023/07/03 12:58:01;;;;;;;3.33;1.73;;;19.80;82.30;;;;;;4934912;29;20132;-79